Warning: Javascript must be enabled to use all the features on this page!


Page Loading - Please Wait...

* We've detected you're using a mobile device. Find our Next Generation Station Page here.
Click to hideNews Bulletins

Peak Streamflow for the Nation

USGS 03455500 W F PIGEON R ABOVE LAKE LOGAN NR HAZELWOOD, NC

Haywood County, North Carolina
Hydrologic Unit Code 06010106
Latitude  35°23'46", Longitude  82°56'15" NAD83
Drainage area 27.6  square miles
Gage datum 2,976.00 feet above NGVD29
Output formats
Table
Graph
Tab-separated file
peakfq (watstore) format
Reselect output format
Water
Year
Date Gage
Height
(feet)
Stream-
flow
(cfs)
1955 1955-03-22 4.88 2,250
1956 1956-04-15 6.62 4,550
1957 1957-04-04 5.92 3,540
1958 1957-12-20 6.19 3,920
1959 1959-01-21 6.95 5,050
1960 1959-10-09 6.16 3,870
1961 1961-02-25 5.06 2,440
1962 1961-12-12 5.59 3,100
1963 1963-03-05 5.53 3,020
1964 1964-03-05 6.73 4,720
1965 1964-10-04 6.88 4,940
1966 1966-02-13 9.50 9,740
1967 1967-07-07 8.06 6,890
1968 1968-03-12 5.10 2,440
1969 1968-10-19 5.04 2,370
1970 1969-12-30 6.20 3,850
1971 1971-02-22 4.85 2,080
1972 1972-06-20 7.12 5,290
1973 1973-05-27 9.05 8,780
1974 1973-11-21 5.98 3,600
1975 1975-09-23 7.66 6,200
1976 1976-05-15 9.06 8,800
1977 1977-03-12 8.03 6,830
1978 1977-10-25 6.07 3,730
1979 1979-09-21 7.82 6,470
1980 1979-11-02 7.64 6,160
1981 1981-05-27 6.24 3,960
1982 1982-01-31 4.64 1,930
1983 1983-02-02 7.51 5,940
1984 1984-02-13 5.92 3,510
1985 1984-11-28 5.16 2,510
1986 1986-03-13 4.92 2,230
1987 1986-11-26 6.13 3,810
1988 1987-11-17 7.53 5,970
1989 1989-05-05 5.86 3,290
1990 1990-02-16 6.91 4,770
1991 1991-03-29 6.32 3,900
1992 1991-11-22 6.45 4,080
1993 1992-11-22 5.74 2,960
1994 1994-08-17 8.25 8,030
1995 1995-03-08 7.11 4,370
1996 1995-10-05 7.81 5,220
1997 1996-11-08 6.03 3,150
1998 1998-01-07 7.74 5,140
1999 1999-07-24 5.19 2,260
2000 1999-11-25 7.22 4,500
2001 2001-01-19 4.66 1,740
2002 2002-09-27 5.19 2,260
2003 2003-05-06 5.31 2,390
2004 2004-09-17 10.83 12,7009
2005 2005-08-30 6.39 3,690
2006 2005-11-29 5.86 3,170
2007 2006-11-15 4.42 1,820
2008 2008-08-26 6.97 4,300
2009 2008-12-11 4.79 2,150
2010 2010-01-24 4.51 2,060
2011 2010-11-30 4.89 2,380
2012 2011-11-28 6.63 4,040
2013 2013-07-03 6.39 3,700
2014 2014-05-15 4.56 2,010
2015 2015-04-19 6.43 3,740
2016 2015-12-29 7.13 4,480
2017 2017-05-01 4.57 2,020
2018 2017-10-23 6.10 3,390
2019 2019-04-19 5.86 3,150
2020 2020-04-13 6.06 3,350
?
  Peak Streamflow Qualification Codes.